createdAt,value
2023-03-23T00:03:19.828Z,27.56
2023-03-23T00:04:19.885Z,27.57
2023-03-23T00:05:19.961Z,27.57
2023-03-23T00:06:20.022Z,27.57
2023-03-23T00:07:20.034Z,27.52
2023-03-23T00:08:20.071Z,27.47
2023-03-23T00:09:20.142Z,27.42
2023-03-23T00:10:20.167Z,27.38
2023-03-23T00:11:20.230Z,27.36
2023-03-23T00:12:20.266Z,27.34
2023-03-23T00:13:21.258Z,27.37
2023-03-23T00:21:20.195Z,27.45
2023-03-23T00:23:20.153Z,27.48
2023-03-23T00:27:20.320Z,27.44
2023-03-23T00:28:20.317Z,27.42
2023-03-23T00:29:20.396Z,27.44
2023-03-23T00:30:20.429Z,27.43
2023-03-23T00:31:20.483Z,27.42
2023-03-23T00:32:20.552Z,27.43
2023-03-23T00:33:20.586Z,27.47
2023-03-23T00:34:20.655Z,27.45
2023-03-23T00:35:20.704Z,27.47
2023-03-23T00:36:20.729Z,27.46
2023-03-23T00:37:20.803Z,27.45
2023-03-23T00:38:20.878Z,27.48
2023-03-23T00:39:20.922Z,27.45
2023-03-23T00:40:20.952Z,27.44
2023-03-23T00:41:21.016Z,27.39
2023-03-23T00:42:21.065Z,27.32
2023-03-23T00:43:21.136Z,27.32
2023-03-23T00:44:22.756Z,27.27
2023-03-23T00:45:21.220Z,27.24
2023-03-23T00:46:21.281Z,27.24
2023-03-23T00:47:21.303Z,27.21
2023-03-23T00:48:21.400Z,27.18
2023-03-23T00:49:21.407Z,27.17
2023-03-23T00:50:29.426Z,27.15
2023-03-23T00:51:22.437Z,27.16
2023-03-23T01:00:21.367Z,27.10
2023-03-23T01:04:21.369Z,27.12
2023-03-23T01:11:21.593Z,27.10
2023-03-23T01:13:21.571Z,27.11
2023-03-23T01:14:21.622Z,27.11
2023-03-23T01:15:21.676Z,27.10
2023-03-23T01:16:21.710Z,27.07
2023-03-23T01:17:21.743Z,27.10
2023-03-23T01:18:21.769Z,27.10
2023-03-23T01:19:22.790Z,27.10
2023-03-23T01:22:21.749Z,27.10
2023-03-23T01:30:21.705Z,27.12
2023-03-23T01:33:21.764Z,27.12
2023-03-23T01:43:22.045Z,27.22
2023-03-23T01:44:22.126Z,27.23
2023-03-23T01:45:22.119Z,27.24
2023-03-23T01:46:22.203Z,27.24
2023-03-23T01:47:22.202Z,27.27
2023-03-23T01:48:22.260Z,27.28
2023-03-23T01:49:22.323Z,27.26
2023-03-23T01:50:22.353Z,27.25
2023-03-23T01:51:26.228Z,27.23
2023-03-23T01:52:23.426Z,27.27
2023-03-23T01:54:22.368Z,27.32
2023-03-23T01:55:22.395Z,27.35
2023-03-23T01:59:22.337Z,27.45
2023-03-23T02:07:22.646Z,27.47
2023-03-23T02:08:22.746Z,27.43
2023-03-23T02:09:22.827Z,27.35
2023-03-23T02:12:22.776Z,27.25
2023-03-23T02:13:22.756Z,27.22
2023-03-23T02:19:22.719Z,27.20
2023-03-23T02:36:22.602Z,27.19
2023-03-23T02:40:22.586Z,27.26
2023-03-23T02:47:22.560Z,27.27
2023-03-23T02:52:22.501Z,27.11
2023-03-23T02:59:22.667Z,27.07
2023-03-23T03:00:22.671Z,27.08
2023-03-23T03:01:22.731Z,27.08
2023-03-23T03:02:22.808Z,27.08
2023-03-23T03:03:22.831Z,27.07
2023-03-23T03:04:22.874Z,27.07
2023-03-23T03:05:22.920Z,27.06
2023-03-23T03:06:22.957Z,27.04
2023-03-23T03:07:23.008Z,27.06
2023-03-23T03:08:23.041Z,27.07
2023-03-23T03:09:23.092Z,27.06
2023-03-23T03:10:23.129Z,27.09
2023-03-23T03:11:23.182Z,27.05
2023-03-23T03:12:23.235Z,27.04
2023-03-23T03:13:23.286Z,27.03
2023-03-23T03:14:23.345Z,27.07
2023-03-23T03:15:23.356Z,27.09
2023-03-23T03:16:23.389Z,27.08
2023-03-23T03:17:23.461Z,27.08
2023-03-23T03:18:23.532Z,27.08
2023-03-23T03:19:23.565Z,27.11
2023-03-23T03:20:23.604Z,27.11
2023-03-23T03:21:23.656Z,27.09
2023-03-23T03:22:23.723Z,27.09
2023-03-23T03:23:23.762Z,27.06
2023-03-23T03:24:23.816Z,27.03
2023-03-23T03:25:23.846Z,27.04
2023-03-23T03:26:23.904Z,27.02
2023-03-23T03:27:23.952Z,27.01
2023-03-23T03:28:23.992Z,27.01
2023-03-23T03:29:24.075Z,27.00
2023-03-23T03:30:24.104Z,27.02
2023-03-23T03:31:24.193Z,27.00
2023-03-23T03:32:24.240Z,27.00
2023-03-23T03:33:24.269Z,26.99
2023-03-23T03:34:24.366Z,27.01
2023-03-23T03:35:24.399Z,26.99
2023-03-23T03:36:24.411Z,26.99
2023-03-23T03:37:24.464Z,27.01
2023-03-23T03:38:24.548Z,27.00
2023-03-23T03:39:24.568Z,27.00
2023-03-23T03:40:24.613Z,27.00
2023-03-23T03:41:24.646Z,27.02
2023-03-23T03:42:24.707Z,26.98
2023-03-23T03:43:24.752Z,26.99
2023-03-23T03:44:24.797Z,26.99
2023-03-23T03:45:24.865Z,26.99
2023-03-23T03:46:24.908Z,27.00
2023-03-23T03:47:24.958Z,27.02
2023-03-23T03:48:24.995Z,27.02
2023-03-23T03:49:25.080Z,27.03
2023-03-23T03:51:27.079Z,27.01
2023-03-23T03:52:25.216Z,27.02
2023-03-23T03:53:28.873Z,27.00
2023-03-23T03:54:25.272Z,27.00
2023-03-23T03:55:25.261Z,26.99
2023-03-23T04:02:25.164Z,27.00
2023-03-23T04:03:25.158Z,26.97
2023-03-23T04:05:25.213Z,26.97
2023-03-23T04:11:32.742Z,26.95
2023-03-23T04:12:26.104Z,26.97
2023-03-23T04:14:25.112Z,26.95
2023-03-23T04:19:25.063Z,26.95
2023-03-23T04:20:32.281Z,26.94
2023-03-23T04:21:26.071Z,26.94
2023-03-23T04:22:25.044Z,26.90
2023-03-23T04:23:25.042Z,26.90
2023-03-23T04:24:56.340Z,26.88
2023-03-23T04:25:26.044Z,26.87
2023-03-23T04:28:25.029Z,26.80
2023-03-23T04:29:25.025Z,26.82
2023-03-23T04:34:24.995Z,26.86
2023-03-23T04:35:25.002Z,26.87
2023-03-23T04:36:24.985Z,26.89
2023-03-23T04:37:25.947Z,26.89
2023-03-23T04:41:24.931Z,26.85
2023-03-23T04:45:24.926Z,26.79
2023-03-23T04:51:24.890Z,26.76
2023-03-23T04:57:24.834Z,26.68
2023-03-23T04:58:24.840Z,26.69
2023-03-23T04:59:24.905Z,26.68
2023-03-23T05:00:24.904Z,26.70
2023-03-23T05:01:24.940Z,26.71
2023-03-23T05:02:24.969Z,26.68
2023-03-23T05:06:24.951Z,26.67
2023-03-23T05:10:24.933Z,26.71
2023-03-23T05:13:24.903Z,26.74
2023-03-23T05:14:24.909Z,26.69
2023-03-23T05:21:24.859Z,26.56
2023-03-23T05:25:24.852Z,26.55
2023-03-23T05:27:24.787Z,26.59
2023-03-23T05:28:24.836Z,26.57
2023-03-23T05:31:24.762Z,26.59
2023-03-23T05:32:24.794Z,26.56
2023-03-23T05:33:24.786Z,26.55
2023-03-23T05:34:24.755Z,26.58
2023-03-23T05:35:24.783Z,26.57
2023-03-23T05:41:24.729Z,26.58
2023-03-23T05:48:24.921Z,26.52
2023-03-23T05:49:24.946Z,26.55
2023-03-23T05:50:25.000Z,26.56
2023-03-23T05:51:24.999Z,26.53
2023-03-23T05:52:25.054Z,26.56
2023-03-23T05:53:25.106Z,26.54
2023-03-23T05:54:25.130Z,26.54
2023-03-23T05:55:25.122Z,26.55
2023-03-23T05:56:25.209Z,26.55
2023-03-23T05:57:25.169Z,26.56
2023-03-23T05:58:27.183Z,26.58
2023-03-23T05:59:25.195Z,26.61
2023-03-23T06:03:25.155Z,26.73
2023-03-23T06:04:25.166Z,26.74
2023-03-23T06:06:25.147Z,26.73
2023-03-23T06:07:25.146Z,26.72
2023-03-23T06:08:25.122Z,26.70
2023-03-23T06:09:25.145Z,26.73
2023-03-23T06:10:25.104Z,26.71
2023-03-23T06:11:25.086Z,26.71
2023-03-23T06:12:25.126Z,26.69
2023-03-23T06:13:25.105Z,26.71
2023-03-23T06:17:25.098Z,26.74
2023-03-23T06:19:25.032Z,26.75
2023-03-23T06:20:25.120Z,26.73
2023-03-23T06:22:25.047Z,26.67
2023-03-23T06:29:25.144Z,26.69
2023-03-23T06:30:25.673Z,26.67
2023-03-23T06:31:25.171Z,26.63
2023-03-23T06:32:25.231Z,26.64
2023-03-23T06:34:25.248Z,26.83
2023-03-23T06:35:25.659Z,26.76
2023-03-23T06:41:25.428Z,28.69
2023-03-23T06:42:25.457Z,29.02
2023-03-23T06:43:25.463Z,29.27
2023-03-23T06:44:25.503Z,29.72
2023-03-23T06:50:25.470Z,31.09
2023-03-23T06:51:25.464Z,31.36
2023-03-23T06:52:25.472Z,31.68
2023-03-23T06:56:25.424Z,30.85
2023-03-23T06:57:25.593Z,30.88
2023-03-23T06:58:25.420Z,30.83
2023-03-23T06:59:25.441Z,31.47
2023-03-23T07:02:25.416Z,31.52
2023-03-23T07:03:25.429Z,31.41
2023-03-23T07:04:25.426Z,31.38
2023-03-23T07:05:25.709Z,31.54
2023-03-23T07:08:25.391Z,31.25
2023-03-23T07:09:37.689Z,32.17
2023-03-23T07:10:26.742Z,32.37
2023-03-23T07:11:25.357Z,31.84
2023-03-23T07:15:25.333Z,31.28
2023-03-23T07:18:25.309Z,31.49
2023-03-23T07:19:25.315Z,32.02
2023-03-23T07:20:25.706Z,31.86
2023-03-23T07:23:25.447Z,31.33
2023-03-23T07:24:25.498Z,31.65
2023-03-23T07:25:25.722Z,31.82
2023-03-23T07:26:25.619Z,31.42
2023-03-23T07:27:25.677Z,30.88
2023-03-23T07:28:25.756Z,30.84
2023-03-23T07:29:25.805Z,30.45
2023-03-23T07:30:25.924Z,31.03
2023-03-23T07:42:25.810Z,29.83
2023-03-23T07:43:25.753Z,30.82
2023-03-23T07:44:25.798Z,31.51
2023-03-23T07:47:25.729Z,30.57
2023-03-23T07:48:26.721Z,31.33
2023-03-23T07:49:25.733Z,30.66
2023-03-23T07:52:25.666Z,28.96
2023-03-23T07:53:25.704Z,29.37
2023-03-23T07:56:25.752Z,28.82
2023-03-23T07:58:25.708Z,28.86
2023-03-23T07:59:25.650Z,28.87
2023-03-23T08:03:25.620Z,28.36
2023-03-23T08:06:25.599Z,28.24
2023-03-23T08:07:25.602Z,28.46
2023-03-23T08:08:25.608Z,28.79
2023-03-23T08:09:25.664Z,28.96
2023-03-23T08:10:25.651Z,28.53
2023-03-23T08:11:25.678Z,28.63
2023-03-23T08:12:25.742Z,28.32
2023-03-23T08:13:25.801Z,28.90
2023-03-23T08:18:25.978Z,28.50
2023-03-23T08:19:25.993Z,28.48
2023-03-23T08:20:26.088Z,28.66
2023-03-23T08:21:26.151Z,28.29
2023-03-23T08:22:26.217Z,29.16
2023-03-23T08:23:26.268Z,28.58
2023-03-23T08:24:26.316Z,28.28
2023-03-23T08:25:26.357Z,28.59
2023-03-23T08:26:26.390Z,29.04
2023-03-23T08:27:26.414Z,28.49
2023-03-23T08:28:26.441Z,29.21
2023-03-23T08:29:26.455Z,28.91
2023-03-23T08:30:26.486Z,28.74
2023-03-23T08:31:26.689Z,28.80
2023-03-23T08:33:26.599Z,29.56
2023-03-23T08:37:26.620Z,32.15
2023-03-23T08:38:26.682Z,31.80
2023-03-23T08:39:26.753Z,32.16
2023-03-23T08:40:26.782Z,31.28
2023-03-23T08:41:26.873Z,30.32
2023-03-23T08:42:26.955Z,30.30
2023-03-23T08:43:27.082Z,30.25
2023-03-23T08:44:27.054Z,30.93
2023-03-23T08:45:27.105Z,30.54
2023-03-23T08:46:27.183Z,30.57
2023-03-23T08:47:27.270Z,30.89
2023-03-23T08:48:28.303Z,29.86
2023-03-23T08:49:28.254Z,30.27
2023-03-23T08:50:27.281Z,27.86
2023-03-23T08:51:27.747Z,27.93
2023-03-23T08:56:27.250Z,27.98
2023-03-23T08:59:27.237Z,27.85
2023-03-23T09:00:33.299Z,27.78
2023-03-23T09:01:28.245Z,27.56
2023-03-23T09:02:27.168Z,27.70
2023-03-23T09:03:27.210Z,27.79
2023-03-23T09:04:27.160Z,27.71
2023-03-23T09:05:27.169Z,27.92
2023-03-23T09:06:28.518Z,27.91
2023-03-23T09:07:27.183Z,27.61
2023-03-23T09:12:27.367Z,27.49
2023-03-23T09:13:27.476Z,28.14
2023-03-23T09:14:27.460Z,27.72
2023-03-23T09:15:33.203Z,28.36
2023-03-23T09:16:28.558Z,29.07
2023-03-23T09:17:27.533Z,28.98
2023-03-23T09:19:27.500Z,28.55
2023-03-23T09:20:27.570Z,27.93
2023-03-23T09:21:27.491Z,27.49
2023-03-23T09:22:27.499Z,27.30
2023-03-23T09:23:27.516Z,27.65
2023-03-23T09:24:27.511Z,27.17
2023-03-23T09:25:27.489Z,27.64
2023-03-23T09:26:27.463Z,27.30
2023-03-23T09:27:27.476Z,27.23
2023-03-23T09:28:27.440Z,27.45
2023-03-23T09:29:27.484Z,27.43
2023-03-23T09:30:27.552Z,28.14
2023-03-23T09:31:27.761Z,28.41
2023-03-23T09:35:27.834Z,29.34
2023-03-23T09:36:27.859Z,29.96
2023-03-23T09:37:27.870Z,30.62
2023-03-23T09:38:27.871Z,31.86
2023-03-23T09:39:27.880Z,40.62
2023-03-23T09:40:27.886Z,31.47
2023-03-23T09:41:28.248Z,31.40
2023-03-23T09:42:27.894Z,31.32
2023-03-23T09:43:27.890Z,29.47
2023-03-23T09:46:27.901Z,29.20
2023-03-23T09:47:27.975Z,30.35
2023-03-23T09:48:27.982Z,31.21
2023-03-23T09:49:28.045Z,29.50
2023-03-23T09:50:28.092Z,29.26
2023-03-23T09:51:28.253Z,29.19
2023-03-23T09:52:28.397Z,30.06
2023-03-23T09:53:28.301Z,29.84
2023-03-23T09:54:28.335Z,30.31
2023-03-23T09:55:28.468Z,30.53
2023-03-23T09:56:28.452Z,30.53
2023-03-23T09:57:28.534Z,30.15
2023-03-23T09:58:28.607Z,29.88
2023-03-23T09:59:28.631Z,30.31
2023-03-23T10:00:28.757Z,29.91
2023-03-23T10:01:29.296Z,29.31
2023-03-23T10:02:28.798Z,29.59
2023-03-23T10:03:28.882Z,29.38
2023-03-23T10:04:28.909Z,29.38
2023-03-23T10:05:28.964Z,29.19
2023-03-23T10:06:29.050Z,29.10
2023-03-23T10:07:29.078Z,29.16
2023-03-23T10:08:29.172Z,29.17
2023-03-23T10:09:29.258Z,29.45
2023-03-23T10:10:29.304Z,29.56
2023-03-23T10:11:29.338Z,29.25
2023-03-23T10:12:29.346Z,29.48
2023-03-23T10:13:29.408Z,29.17
2023-03-23T10:14:29.487Z,30.16
2023-03-23T10:15:29.554Z,31.05
2023-03-23T10:16:29.673Z,30.57
2023-03-23T10:17:29.708Z,31.58
2023-03-23T10:18:29.641Z,30.64
2023-03-23T10:19:29.731Z,32.74
2023-03-23T10:20:29.758Z,31.50
2023-03-23T10:21:30.302Z,31.26
2023-03-23T10:23:29.878Z,30.74
2023-03-23T10:24:29.968Z,30.51
2023-03-23T10:26:29.996Z,29.69
2023-03-23T10:27:30.036Z,29.05
2023-03-23T10:28:30.048Z,28.97
2023-03-23T10:29:30.101Z,29.28
2023-03-23T10:31:30.166Z,28.37
2023-03-23T10:32:30.149Z,28.38
2023-03-23T10:33:30.234Z,28.52
2023-03-23T10:34:30.267Z,28.62
2023-03-23T10:35:31.872Z,28.51
2023-03-23T10:36:30.370Z,28.93
2023-03-23T10:37:30.778Z,28.76
2023-03-23T10:38:30.441Z,28.78
2023-03-23T10:39:30.496Z,28.65
2023-03-23T10:40:30.524Z,28.92
2023-03-23T10:41:30.576Z,28.32
2023-03-23T10:42:30.644Z,28.89
2023-03-23T10:43:30.656Z,29.21
2023-03-23T10:44:30.694Z,29.18
2023-03-23T10:45:30.753Z,29.91
2023-03-23T10:46:32.394Z,30.57
2023-03-23T10:48:30.794Z,29.10
2023-03-23T10:52:30.774Z,27.34
2023-03-23T10:54:30.743Z,27.48
2023-03-23T10:56:30.778Z,27.67
2023-03-23T11:00:30.678Z,27.39
2023-03-23T11:01:30.691Z,27.68
2023-03-23T11:04:30.667Z,27.39
2023-03-23T11:05:30.665Z,27.47
2023-03-23T11:06:30.740Z,27.47
2023-03-23T11:08:30.667Z,27.56
2023-03-23T11:13:30.581Z,27.59
2023-03-23T11:17:30.578Z,28.89
2023-03-23T11:20:30.525Z,27.61
2023-03-23T11:21:30.521Z,29.71
2023-03-23T11:22:30.777Z,29.15
2023-03-23T11:25:30.577Z,27.79
2023-03-23T11:26:30.540Z,27.08
2023-03-23T11:27:30.609Z,28.00
2023-03-23T11:28:30.647Z,28.25
2023-03-23T11:29:30.721Z,27.57
2023-03-23T11:30:30.767Z,27.77
2023-03-23T11:31:30.803Z,27.66
2023-03-23T11:32:31.311Z,28.07
2023-03-23T11:34:31.024Z,27.11
2023-03-23T11:35:31.110Z,26.83
2023-03-23T11:36:31.141Z,26.99
2023-03-23T11:37:31.299Z,28.06
2023-03-23T11:41:31.482Z,27.19
2023-03-23T11:42:31.514Z,26.90
2023-03-23T11:43:31.570Z,26.25
2023-03-23T11:44:31.618Z,25.95
2023-03-23T11:45:31.669Z,26.61
2023-03-23T11:46:31.722Z,26.70
2023-03-23T11:47:31.794Z,26.85
2023-03-23T11:48:31.680Z,26.70
2023-03-23T11:49:33.551Z,26.78
2023-03-23T11:50:31.709Z,26.78
2023-03-23T11:51:31.735Z,26.85
2023-03-23T11:52:31.795Z,26.88
2023-03-23T11:53:31.810Z,26.88
2023-03-23T11:54:31.870Z,26.92
2023-03-23T11:55:31.937Z,26.93
2023-03-23T11:56:31.940Z,26.85
2023-03-23T11:57:31.934Z,27.00
2023-03-23T11:58:31.992Z,27.01
2023-03-23T11:59:32.013Z,26.87
2023-03-23T12:00:32.043Z,26.77
2023-03-23T12:01:32.061Z,26.79
2023-03-23T12:02:32.141Z,26.99
2023-03-23T12:03:32.151Z,26.89
2023-03-23T12:04:32.178Z,26.82
2023-03-23T12:05:32.279Z,26.80
2023-03-23T12:08:32.367Z,26.60
2023-03-23T12:09:32.384Z,26.65
2023-03-23T12:10:40.807Z,26.51
2023-03-23T12:11:33.447Z,26.40
2023-03-23T12:14:36.601Z,26.27
2023-03-23T12:15:33.438Z,26.23
2023-03-23T12:20:37.731Z,26.39
2023-03-23T12:21:33.362Z,26.36
2023-03-23T12:22:32.374Z,26.40
2023-03-23T12:24:32.380Z,26.52
2023-03-23T12:26:32.319Z,26.73
2023-03-23T12:27:32.346Z,26.74
2023-03-23T12:28:32.831Z,26.69
2023-03-23T12:31:32.305Z,27.17
2023-03-23T12:34:32.298Z,27.73
2023-03-23T12:35:32.272Z,27.75
2023-03-23T12:36:32.275Z,27.70
2023-03-23T12:37:32.265Z,27.64
2023-03-23T12:39:32.236Z,27.65
2023-03-23T12:40:32.243Z,27.63
2023-03-23T12:44:32.193Z,27.59
2023-03-23T12:45:32.201Z,27.58
2023-03-23T12:46:32.217Z,27.52
2023-03-23T12:53:32.143Z,27.40
2023-03-23T12:59:32.095Z,27.29
2023-03-23T13:03:42.196Z,27.26
2023-03-23T13:05:42.353Z,27.10
2023-03-23T13:08:42.154Z,27.08
2023-03-23T13:09:42.161Z,27.01
2023-03-23T13:11:42.105Z,26.95
2023-03-23T13:12:42.126Z,26.92
2023-03-23T13:18:42.118Z,26.95
2023-03-23T13:22:42.041Z,26.91
2023-03-23T13:26:42.018Z,26.94
2023-03-23T13:28:42.006Z,26.97
2023-03-23T13:29:41.988Z,26.95
2023-03-23T13:30:42.001Z,26.95
2023-03-23T13:33:42.014Z,26.97
2023-03-23T13:39:41.957Z,27.46
2023-03-23T13:40:42.206Z,27.78
2023-03-23T13:43:41.911Z,28.53
2023-03-23T13:44:41.897Z,29.02
2023-03-23T13:45:42.128Z,29.32
2023-03-23T13:48:41.980Z,31.25
2023-03-23T13:49:42.028Z,38.56
2023-03-23T13:50:42.243Z,39.90
2023-03-23T13:51:42.122Z,36.35
2023-03-23T13:52:42.139Z,34.99
2023-03-23T13:53:42.208Z,34.04
2023-03-23T13:54:42.220Z,33.87
2023-03-23T13:55:42.401Z,33.72
2023-03-23T13:56:42.257Z,32.09
2023-03-23T13:57:42.282Z,32.00
2023-03-23T13:58:42.282Z,32.43
2023-03-23T13:59:42.313Z,32.75
2023-03-23T14:00:42.344Z,32.21
2023-03-23T14:01:42.360Z,32.17
2023-03-23T14:02:42.430Z,33.44
2023-03-23T14:03:42.459Z,34.07
2023-03-23T14:04:42.464Z,33.40
2023-03-23T14:05:42.614Z,32.86
2023-03-23T14:06:42.560Z,32.77
2023-03-23T14:07:42.597Z,33.84
2023-03-23T14:08:42.670Z,33.68
2023-03-23T14:09:42.709Z,32.98
2023-03-23T14:10:42.747Z,33.26
2023-03-23T14:11:42.777Z,32.52
2023-03-23T14:12:42.839Z,32.34
2023-03-23T14:13:42.883Z,32.21
2023-03-23T14:14:42.947Z,32.33
2023-03-23T14:15:43.143Z,32.31
2023-03-23T14:16:42.999Z,32.33
2023-03-23T14:17:43.050Z,32.33
2023-03-23T14:18:43.094Z,32.23
2023-03-23T14:19:43.126Z,31.89
2023-03-23T14:20:43.128Z,31.67
2023-03-23T14:21:43.164Z,31.73
2023-03-23T14:22:43.202Z,31.85
2023-03-23T14:23:43.245Z,31.75
2023-03-23T14:24:43.305Z,31.77
2023-03-23T14:25:43.413Z,31.80
2023-03-23T14:26:43.362Z,31.70
2023-03-23T14:27:43.407Z,31.77
2023-03-23T14:28:43.444Z,31.76
2023-03-23T14:29:43.504Z,31.67
2023-03-23T14:30:43.536Z,31.80
2023-03-23T14:31:43.571Z,31.86
2023-03-23T14:32:43.635Z,31.67
2023-03-23T14:33:43.672Z,31.63
2023-03-23T14:34:43.749Z,31.90
2023-03-23T14:35:44.129Z,31.75
2023-03-23T14:36:43.865Z,31.64
2023-03-23T14:37:43.907Z,31.57
2023-03-23T14:38:43.996Z,31.59
2023-03-23T14:39:44.028Z,31.61
2023-03-23T14:40:45.389Z,31.46
2023-03-23T14:41:44.147Z,31.39
2023-03-23T14:42:44.273Z,31.17
2023-03-23T14:43:44.608Z,30.96
2023-03-23T14:45:44.673Z,30.97
2023-03-23T14:46:44.464Z,30.85
2023-03-23T14:47:44.519Z,30.77
2023-03-23T14:48:44.563Z,30.83
2023-03-23T14:49:44.643Z,30.87
2023-03-23T14:50:44.679Z,30.77
2023-03-23T14:51:44.769Z,30.66
2023-03-23T14:52:44.797Z,30.64
2023-03-23T14:53:44.866Z,30.61
2023-03-23T14:54:44.922Z,30.57
2023-03-23T14:55:45.018Z,30.57
2023-03-23T14:56:45.050Z,30.31
2023-03-23T14:57:45.076Z,30.29
2023-03-23T14:58:45.141Z,30.35
2023-03-23T14:59:45.214Z,30.35
2023-03-23T15:00:45.283Z,30.30
2023-03-23T15:01:45.330Z,30.28
2023-03-23T15:02:45.407Z,30.23
2023-03-23T15:03:45.470Z,30.25
2023-03-23T15:04:45.537Z,30.25
2023-03-23T15:05:45.571Z,30.16
2023-03-23T15:06:45.609Z,30.13
2023-03-23T15:07:45.703Z,30.09
2023-03-23T15:08:45.736Z,30.01
2023-03-23T15:09:45.801Z,29.99
2023-03-23T15:10:45.844Z,29.90
2023-03-23T15:11:45.919Z,29.95
2023-03-23T15:12:45.957Z,29.89
2023-03-23T15:13:46.048Z,29.87
2023-03-23T15:15:46.157Z,29.85
2023-03-23T15:16:46.185Z,29.41
2023-03-23T15:17:46.237Z,29.24
2023-03-23T15:18:46.383Z,29.13
2023-03-23T15:19:46.394Z,29.23
2023-03-23T15:20:46.421Z,29.17
2023-03-23T15:21:46.507Z,29.16
2023-03-23T15:22:46.586Z,29.13
2023-03-23T15:23:46.624Z,29.16
2023-03-23T15:24:46.707Z,29.11
2023-03-23T15:25:46.728Z,29.13
2023-03-23T15:26:46.827Z,29.09
2023-03-23T15:27:46.893Z,29.14
2023-03-23T15:28:46.923Z,29.10
2023-03-23T15:29:47.972Z,29.07
2023-03-23T15:32:46.929Z,29.04
2023-03-23T15:33:47.905Z,29.03
2023-03-23T15:35:46.875Z,28.86
2023-03-23T15:38:46.883Z,28.72
2023-03-23T15:41:46.848Z,28.68
2023-03-23T15:42:46.886Z,28.53
2023-03-23T15:43:46.964Z,28.55
2023-03-23T15:44:47.077Z,28.55
2023-03-23T15:45:47.077Z,28.54
2023-03-23T15:46:47.137Z,28.56
2023-03-23T15:47:47.200Z,28.58
2023-03-23T15:48:47.257Z,28.53
2023-03-23T15:49:47.356Z,28.57
2023-03-23T15:50:47.356Z,28.62
2023-03-23T15:51:47.420Z,28.59
2023-03-23T15:52:47.503Z,28.61
2023-03-23T15:53:47.590Z,28.42
2023-03-23T15:54:47.612Z,28.37
2023-03-23T15:55:47.667Z,28.36
2023-03-23T15:56:47.757Z,28.39
2023-03-23T15:58:57.895Z,28.26
2023-03-23T15:59:57.872Z,28.33
2023-03-23T16:00:57.907Z,28.29
2023-03-23T16:06:57.813Z,28.20
2023-03-23T16:07:57.812Z,28.25
2023-03-23T16:09:57.816Z,28.25
2023-03-23T16:11:57.782Z,28.20
2023-03-23T16:16:57.779Z,28.10
2023-03-23T16:17:57.781Z,28.11
2023-03-23T16:18:57.752Z,28.10
2023-03-23T16:19:57.746Z,28.11
2023-03-23T16:22:57.723Z,28.13
2023-03-23T16:23:57.719Z,28.09
2023-03-23T16:27:57.687Z,28.07
2023-03-23T16:29:09.878Z,28.05
2023-03-23T16:30:03.680Z,28.05
2023-03-23T16:30:58.707Z,28.04
2023-03-23T16:32:57.988Z,28.00
2023-03-23T16:33:57.633Z,28.01
2023-03-23T16:34:57.672Z,27.93
2023-03-23T16:35:57.796Z,27.99
2023-03-23T16:39:57.676Z,27.97
2023-03-23T16:42:57.574Z,27.94
2023-03-23T16:43:57.582Z,27.97
2023-03-23T16:44:57.592Z,27.96
2023-03-23T16:51:57.530Z,27.89
2023-03-23T16:54:57.532Z,28.00
2023-03-23T16:58:57.493Z,27.97
2023-03-23T16:59:57.494Z,27.97
2023-03-23T17:00:57.462Z,27.96
2023-03-23T17:04:57.470Z,27.99
2023-03-23T17:09:57.411Z,28.01
2023-03-23T17:10:57.396Z,28.04
2023-03-23T17:19:57.402Z,28.15
2023-03-23T17:29:57.318Z,28.24
2023-03-23T17:30:57.324Z,28.22
2023-03-23T17:41:57.203Z,28.32
2023-03-23T17:47:57.188Z,28.34
2023-03-23T17:48:57.174Z,28.38
2023-03-23T17:49:57.208Z,28.37
2023-03-23T17:55:57.126Z,28.39
2023-03-23T18:01:57.141Z,28.36
2023-03-23T18:02:57.140Z,28.40
2023-03-23T18:03:57.142Z,28.42
2023-03-23T18:04:57.156Z,28.40
2023-03-23T18:10:57.167Z,28.40
2023-03-23T18:11:57.178Z,28.42
2023-03-23T18:22:57.306Z,28.47
2023-03-23T18:23:59.857Z,28.48
2023-03-23T18:24:57.319Z,28.45
2023-03-23T18:25:57.308Z,28.47
2023-03-23T18:27:57.272Z,28.44
2023-03-23T18:28:58.268Z,28.49
2023-03-23T18:30:57.266Z,28.43
2023-03-23T18:34:57.239Z,28.47
2023-03-23T18:40:57.217Z,28.54
2023-03-23T18:41:57.186Z,28.52
2023-03-23T18:43:57.787Z,28.54
2023-03-23T18:51:57.126Z,28.50
2023-03-23T19:03:57.069Z,28.60
2023-03-23T19:04:57.090Z,28.64
2023-03-23T19:05:57.043Z,28.63
2023-03-23T19:06:57.046Z,28.54
2023-03-23T19:07:57.106Z,28.62
2023-03-23T19:14:57.146Z,28.75
2023-03-23T19:15:57.163Z,28.78
2023-03-23T19:17:57.096Z,28.87
2023-03-23T19:18:57.108Z,28.93
2023-03-23T19:19:58.058Z,28.92
2023-03-23T19:24:57.147Z,28.94
2023-03-23T19:25:57.163Z,28.93
2023-03-23T19:26:57.135Z,28.91
2023-03-23T19:28:49.965Z,28.88
2023-03-23T19:30:57.210Z,28.86
2023-03-23T19:31:57.150Z,28.84
2023-03-23T19:33:57.136Z,28.80
2023-03-23T19:34:57.149Z,28.79
2023-03-23T19:37:04.779Z,28.78
2023-03-23T19:37:58.099Z,28.79
2023-03-23T19:38:57.089Z,28.81
2023-03-23T19:40:57.218Z,28.82
2023-03-23T19:45:57.034Z,28.89
2023-03-23T19:46:57.640Z,28.90
2023-03-23T19:47:57.121Z,28.89
2023-03-23T19:48:57.034Z,28.93
2023-03-23T19:49:57.043Z,28.92
2023-03-23T19:52:08.077Z,28.92
2023-03-23T19:53:00.178Z,28.92
2023-03-23T19:54:56.989Z,29.01
2023-03-23T19:55:57.383Z,29.01
2023-03-23T19:56:57.014Z,29.02
2023-03-23T20:00:57.070Z,29.03
2023-03-23T20:05:56.957Z,28.98
2023-03-23T20:06:57.179Z,28.96
2023-03-23T20:10:56.876Z,28.97
2023-03-23T20:11:56.891Z,28.97
2023-03-23T20:17:57.986Z,29.01
2023-03-23T20:23:56.818Z,28.99
2023-03-23T20:25:57.787Z,29.02
2023-03-23T20:31:56.725Z,29.03
2023-03-23T20:32:56.771Z,29.06
2023-03-23T20:33:59.832Z,29.04
2023-03-23T20:34:56.754Z,29.07
2023-03-23T20:35:56.824Z,29.10
2023-03-23T20:36:56.744Z,29.08
2023-03-23T20:38:56.690Z,29.09
2023-03-23T20:39:56.700Z,29.10
2023-03-23T20:40:56.711Z,29.09
2023-03-23T20:42:56.704Z,29.13
2023-03-23T20:49:56.651Z,29.14
2023-03-23T20:51:56.690Z,29.13
2023-03-23T20:53:56.607Z,29.15
2023-03-23T20:54:56.625Z,29.15
2023-03-23T21:01:56.614Z,29.15
2023-03-23T21:04:56.545Z,29.16
2023-03-23T21:05:56.563Z,29.14
2023-03-23T21:09:56.532Z,29.12
2023-03-23T21:10:56.518Z,29.11
2023-03-23T21:18:56.515Z,29.11
2023-03-23T21:19:56.509Z,29.14
2023-03-23T21:20:56.537Z,29.14
2023-03-23T21:21:57.292Z,29.17
2023-03-23T21:22:56.563Z,29.20
2023-03-23T21:23:56.596Z,29.26
2023-03-23T21:24:56.630Z,29.21
2023-03-23T21:25:56.640Z,29.20
2023-03-23T21:27:56.677Z,29.21
2023-03-23T21:35:56.890Z,29.20
2023-03-23T21:36:56.863Z,29.20
2023-03-23T21:37:56.890Z,29.19
2023-03-23T21:38:56.908Z,29.18
2023-03-23T21:39:57.104Z,29.17
2023-03-23T21:43:56.998Z,29.19
2023-03-23T21:44:57.003Z,29.17
2023-03-23T21:45:56.999Z,29.19
2023-03-23T21:46:57.042Z,29.18
2023-03-23T21:47:57.192Z,29.17
2023-03-23T21:51:57.105Z,29.18
2023-03-23T21:52:57.121Z,29.19
2023-03-23T21:53:57.136Z,29.17
2023-03-23T21:54:57.134Z,29.18
2023-03-23T21:55:57.176Z,29.19
2023-03-23T22:02:57.371Z,29.24
2023-03-23T22:03:57.312Z,29.27
2023-03-23T22:04:57.369Z,29.26
2023-03-23T22:05:57.394Z,29.24
2023-03-23T22:06:57.399Z,29.24
2023-03-23T22:07:57.414Z,29.24
2023-03-23T22:08:57.455Z,29.25
2023-03-23T22:09:57.487Z,29.26
2023-03-23T22:11:00.704Z,29.25
2023-03-23T22:11:57.523Z,29.24
2023-03-23T22:15:57.490Z,29.29
2023-03-23T22:16:57.474Z,29.25
2023-03-23T22:21:57.427Z,29.27
2023-03-23T22:29:57.357Z,29.26
2023-03-23T22:30:57.356Z,29.25
2023-03-23T22:32:57.380Z,29.26
2023-03-23T22:33:57.359Z,29.28
2023-03-23T22:41:57.268Z,29.27
2023-03-23T22:42:57.278Z,29.27
2023-03-23T22:43:57.284Z,29.24
2023-03-23T22:45:57.286Z,29.24
2023-03-23T22:51:57.237Z,29.20
2023-03-23T22:52:57.245Z,29.18
2023-03-23T23:01:57.160Z,29.19
2023-03-23T23:08:57.220Z,29.15
2023-03-23T23:09:57.282Z,29.15
2023-03-23T23:10:57.293Z,29.12
2023-03-23T23:15:57.356Z,29.12
2023-03-23T23:32:57.640Z,29.05
2023-03-23T23:33:57.645Z,29.03
2023-03-23T23:34:57.620Z,29.05
2023-03-23T23:35:57.691Z,29.04
2023-03-23T23:36:57.678Z,29.03
2023-03-23T23:37:57.695Z,29.05
2023-03-23T23:41:57.761Z,29.04
